Time;durP1;ratioP1;P1;durP2;ratioP2;P2;SDS_P1;SDS_P2;PMS_P1;PMS_P2;Temp;Humidity;BMP_temperature;BMP_pressure;BME280_temperature;BME280_humidity;BME280_pressure;Samples;Min_cycle;Max_cycle;Signal;HPM_P1;HPM_P2
2022/08/09 00:00:26;;;;;;;7.43;5.50;;;;;;;;;;5037460;28;20041;-78
2022/08/09 00:03:11;;;;;;;9.48;5.85;;;;;;;;;;5015721;28;20121;-78
2022/08/09 00:05:57;;;;;;;6.03;5.28;;;;;;;;;;5037203;28;20041;-79
2022/08/09 00:08:47;;;;;;;6.97;5.35;;;;;;;;;;5036585;28;20475;-78
2022/08/09 00:11:32;;;;;;;12.98;5.35;;;;;;;;;;5037005;28;20041;-78
2022/08/09 00:14:18;;;;;;;6.53;5.07;;;;;;;;;;5037104;28;20490;-78
2022/08/09 00:17:04;;;;;;;7.90;5.68;;;;;;;;;;5043785;28;20049;-79
2022/08/09 00:19:49;;;;;;;6.45;5.22;;;;;;;;;;5037041;28;20046;-79
2022/08/09 00:22:35;;;;;;;6.18;5.22;;;;;;;;;;5037134;28;20470;-79
2022/08/09 00:25:20;;;;;;;6.13;5.18;;;;;;;;;;5036959;28;20403;-80
2022/08/09 00:28:06;;;;;;;7.25;5.38;;;;;;;;;;5036967;28;20045;-79
2022/08/09 00:30:52;;;;;;;8.00;5.40;;;;;;;;;;5037063;28;20037;-79
2022/08/09 00:33:42;;;;;;;9.80;5.90;;;;;;;;;;5021933;28;20395;-80
2022/08/09 00:36:27;;;;;;;8.70;6.30;;;;;;;;;;5022839;28;20487;-78
2022/08/09 00:39:12;;;;;;;10.85;6.18;;;;;;;;;;5036518;28;20045;-78
2022/08/09 00:41:58;;;;;;;11.95;7.65;;;;;;;;;;5036592;28;20049;-79
2022/08/09 00:44:43;;;;;;;13.00;8.45;;;;;;;;;;5036874;28;20053;-79
2022/08/09 00:47:29;;;;;;;12.30;8.57;;;;;;;;;;5028237;28;20041;-80
2022/08/09 00:50:15;;;;;;;10.77;6.10;;;;;;;;;;5043335;28;20049;-78
2022/08/09 00:53:00;;;;;;;10.15;6.53;;;;;;;;;;5036709;28;20041;-78
2022/08/09 00:55:46;;;;;;;10.65;6.32;;;;;;;;;;5036707;28;20046;-78
2022/08/09 00:58:34;;;;;;;8.40;6.32;;;;;;;;;;5036564;28;20042;-78
2022/08/09 01:01:23;;;;;;;10.88;6.90;;;;;;;;;;5035581;28;20391;-79
2022/08/09 01:04:30;;;;;;;11.15;6.55;;;;;;;;;;5036323;28;20049;-77
2022/08/09 01:07:27;;;;;;;11.63;6.45;;;;;;;;;;5035700;28;20050;-77
2022/08/09 01:10:19;;;;;;;11.52;6.32;;;;;;;;;;5021404;28;20037;-77
2022/08/09 01:13:50;;;;;;;10.77;6.35;;;;;;;;;;5036718;28;20411;-77
2022/08/09 01:16:43;;;;;;;13.63;6.60;;;;;;;;;;5026031;28;20053;-77
2022/08/09 01:20:16;;;;;;;10.35;6.63;;;;;;;;;;5013813;28;20049;-78
2022/08/09 01:23:20;;;;;;;8.95;6.05;;;;;;;;;;5009025;28;20046;-77
2022/08/09 01:26:44;;;;;;;9.45;6.57;;;;;;;;;;5035820;28;20498;-79
2022/08/09 01:29:34;;;;;;;9.98;6.35;;;;;;;;;;5035517;28;20049;-81
2022/08/09 01:32:22;;;;;;;12.65;6.13;;;;;;;;;;5043136;28;20062;-82
2022/08/09 01:35:13;;;;;;;16.25;6.78;;;;;;;;;;5037860;28;20041;-85
2022/08/09 01:38:03;;;;;;;7.40;5.95;;;;;;;;;;5028351;28;20049;-86
2022/08/09 01:40:55;;;;;;;11.75;6.72;;;;;;;;;;5034363;28;20045;-86
2022/08/09 01:43:44;;;;;;;11.25;6.93;;;;;;;;;;5025783;28;20410;-85
2022/08/09 01:46:34;;;;;;;7.72;6.43;;;;;;;;;;5026515;28;20046;-85
2022/08/09 01:49:20;;;;;;;9.15;6.50;;;;;;;;;;5034591;28;20046;-85
2022/08/09 01:52:13;;;;;;;8.45;6.70;;;;;;;;;;5027182;28;20053;-86
2022/08/09 01:54:59;;;;;;;9.93;6.78;;;;;;;;;;5035236;28;20038;-85
2022/08/09 01:57:46;;;;;;;10.30;6.82;;;;;;;;;;5027379;28;20053;-86
2022/08/09 02:00:32;;;;;;;37.92;25.35;;;;;;;;;;5027438;28;20049;-87
2022/08/09 02:03:18;;;;;;;11.90;9.30;;;;;;;;;;5035469;28;20045;-86
2022/08/09 02:06:06;;;;;;;32.10;23.90;;;;;;;;;;5035854;28;20494;-88
2022/08/09 02:08:51;;;;;;;34.90;25.45;;;;;;;;;;5036435;28;20045;-87
2022/08/09 02:11:36;;;;;;;7.75;6.47;;;;;;;;;;5035788;28;20045;-86
2022/08/09 02:14:26;;;;;;;7.50;5.80;;;;;;;;;;5027433;28;20049;-87
2022/08/09 02:17:12;;;;;;;95.20;68.75;;;;;;;;;;5021335;28;20496;-88
2022/08/09 02:19:57;;;;;;;14.75;11.32;;;;;;;;;;5035955;28;20038;-88
2022/08/09 02:23:05;;;;;;;8.73;6.03;;;;;;;;;;5035623;28;20061;-86
2022/08/09 02:25:51;;;;;;;8.75;6.07;;;;;;;;;;5027659;28;20041;-87
2022/08/09 02:28:45;;;;;;;7.43;5.53;;;;;;;;;;5027328;28;20046;-86
2022/08/09 02:31:34;;;;;;;6.68;5.45;;;;;;;;;;5027181;28;20042;-88
2022/08/09 02:34:27;;;;;;;8.43;5.78;;;;;;;;;;5020748;28;20045;-87
2022/08/09 02:37:15;;;;;;;5.95;4.97;;;;;;;;;;5012848;28;20046;-87
2022/08/09 02:40:12;;;;;;;3.40;2.90;;;;;;;;;;5034897;28;20049;-88
2022/08/09 02:43:00;;;;;;;5.78;4.78;;;;;;;;;;5035107;28;20049;-88
2022/08/09 02:45:48;;;;;;;5.97;4.70;;;;;;;;;;5020051;28;20049;-86
2022/08/09 02:48:34;;;;;;;5.95;5.03;;;;;;;;;;5012872;28;20045;-86
2022/08/09 02:51:22;;;;;;;8.63;5.30;;;;;;;;;;5034939;28;20406;-86
2022/08/09 02:54:11;;;;;;;6.05;5.15;;;;;;;;;;5013322;28;20487;-87
2022/08/09 02:57:00;;;;;;;7.65;5.35;;;;;;;;;;5026708;28;20046;-86
2022/08/09 02:59:47;;;;;;;10.25;5.53;;;;;;;;;;5034889;28;20049;-87
2022/08/09 03:02:34;;;;;;;6.40;5.15;;;;;;;;;;5035208;28;20045;-86
2022/08/09 03:05:21;;;;;;;6.32;5.20;;;;;;;;;;5034961;28;20045;-86
2022/08/09 03:08:07;;;;;;;7.35;5.72;;;;;;;;;;5034411;28;20037;-86
2022/08/09 03:10:54;;;;;;;8.48;5.40;;;;;;;;;;5034667;28;20066;-86
2022/08/09 03:13:41;;;;;;;7.05;5.53;;;;;;;;;;5012125;28;20041;-85
2022/08/09 03:16:28;;;;;;;5.68;5.07;;;;;;;;;;5034187;28;20041;-85
2022/08/09 03:19:16;;;;;;;8.10;5.97;;;;;;;;;;5034250;28;20049;-85
2022/08/09 03:22:02;;;;;;;7.88;5.80;;;;;;;;;;5019649;28;20045;-85
2022/08/09 03:24:47;;;;;;;9.27;6.05;;;;;;;;;;5034544;28;20482;-85
2022/08/09 03:27:34;;;;;;;7.82;5.80;;;;;;;;;;5033550;28;20049;-84
2022/08/09 03:30:20;;;;;;;10.20;6.20;;;;;;;;;;5033956;28;20037;-85
2022/08/09 03:33:08;;;;;;;6.25;5.65;;;;;;;;;;5034094;28;20049;-86
2022/08/09 03:35:54;;;;;;;8.27;5.78;;;;;;;;;;5034511;28;20033;-86
2022/08/09 03:38:42;;;;;;;7.03;5.85;;;;;;;;;;5034694;28;20038;-86
2022/08/09 03:41:26;;;;;;;6.13;5.43;;;;;;;;;;5019340;28;20038;-86
2022/08/09 03:44:11;;;;;;;7.28;5.65;;;;;;;;;;5019784;28;20045;-86
2022/08/09 03:46:57;;;;;;;7.00;5.40;;;;;;;;;;5026619;28;20049;-87
2022/08/09 03:49:43;;;;;;;8.80;5.35;;;;;;;;;;5026456;28;20398;-87
2022/08/09 03:52:29;;;;;;;7.50;5.28;;;;;;;;;;5034386;28;20041;-84
2022/08/09 03:55:16;;;;;;;6.93;5.38;;;;;;;;;;5019088;28;20053;-85
2022/08/09 03:58:01;;;;;;;7.90;5.43;;;;;;;;;;5034050;28;20398;-86
2022/08/09 04:00:48;;;;;;;6.45;5.63;;;;;;;;;;5034407;28;20037;-86
2022/08/09 04:03:34;;;;;;;7.90;5.57;;;;;;;;;;5034343;28;20399;-86
2022/08/09 04:06:20;;;;;;;8.35;5.50;;;;;;;;;;5034100;28;20041;-86
2022/08/09 04:09:06;;;;;;;6.53;5.40;;;;;;;;;;5011580;28;20041;-86
2022/08/09 04:12:09;;;;;;;6.03;4.90;;;;;;;;;;5033961;28;20407;-87
2022/08/09 04:14:55;;;;;;;5.75;5.15;;;;;;;;;;5013151;28;20042;-87
2022/08/09 04:17:41;;;;;;;8.63;4.90;;;;;;;;;;5019693;28;20041;-87
2022/08/09 04:20:28;;;;;;;6.70;5.03;;;;;;;;;;5034858;28;20422;-87
2022/08/09 04:23:14;;;;;;;7.30;5.15;;;;;;;;;;5020891;28;20045;-87
2022/08/09 04:25:59;;;;;;;7.82;5.03;;;;;;;;;;5026043;28;20053;-85
2022/08/09 04:28:45;;;;;;;9.15;5.28;;;;;;;;;;5033247;28;20046;-84
2022/08/09 04:31:30;;;;;;;8.93;4.97;;;;;;;;;;5033827;28;20049;-86
2022/08/09 04:34:16;;;;;;;8.07;5.75;;;;;;;;;;5019351;28;20057;-86
2022/08/09 04:37:01;;;;;;;5.68;4.90;;;;;;;;;;5034628;28;20045;-86
2022/08/09 04:39:47;;;;;;;7.53;5.43;;;;;;;;;;5029815;28;20053;-85
2022/08/09 04:42:33;;;;;;;6.95;5.20;;;;;;;;;;5036899;28;20041;-83
2022/08/09 04:45:18;;;;;;;5.65;4.85;;;;;;;;;;5036767;28;20046;-84
2022/08/09 04:48:04;;;;;;;6.63;5.15;;;;;;;;;;5029386;28;20471;-85
2022/08/09 04:50:49;;;;;;;9.30;5.10;;;;;;;;;;5014859;28;20041;-83
2022/08/09 04:53:35;;;;;;;8.35;4.97;;;;;;;;;;5036548;28;20041;-83
2022/08/09 04:56:20;;;;;;;11.05;5.55;;;;;;;;;;5043148;28;20042;-83
2022/08/09 04:59:06;;;;;;;7.30;5.30;;;;;;;;;;5037620;28;20057;-86
2022/08/09 05:01:52;;;;;;;6.72;5.30;;;;;;;;;;5037032;28;20046;-86
2022/08/09 05:04:37;;;;;;;7.50;5.28;;;;;;;;;;5015022;28;20037;-85
2022/08/09 05:07:24;;;;;;;11.88;5.00;;;;;;;;;;5037005;28;20049;-85
2022/08/09 05:10:11;;;;;;;5.38;4.75;;;;;;;;;;5027831;28;20053;-85
2022/08/09 05:13:25;;;;;;;6.10;5.20;;;;;;;;;;5037189;28;20502;-88
2022/08/09 05:16:11;;;;;;;6.07;4.65;;;;;;;;;;5022262;28;20049;-88
2022/08/09 05:18:56;;;;;;;8.00;4.50;;;;;;;;;;5027443;28;20046;-84
2022/08/09 05:21:42;;;;;;;5.78;4.40;;;;;;;;;;5036658;28;20470;-85
2022/08/09 05:24:27;;;;;;;5.63;3.83;;;;;;;;;;5036765;28;20049;-84
2022/08/09 05:27:13;;;;;;;6.28;3.83;;;;;;;;;;5022672;28;20049;-85
2022/08/09 05:29:58;;;;;;;6.03;3.97;;;;;;;;;;5023337;28;20049;-85
2022/08/09 05:32:45;;;;;;;4.85;3.92;;;;;;;;;;5036544;28;20041;-84
2022/08/09 05:35:29;;;;;;;6.30;3.60;;;;;;;;;;5027421;28;20053;-83
2022/08/09 05:38:15;;;;;;;4.05;3.30;;;;;;;;;;5036225;28;20046;-85
2022/08/09 05:41:01;;;;;;;5.43;3.80;;;;;;;;;;5035380;28;20398;-84
2022/08/09 05:43:46;;;;;;;7.20;3.88;;;;;;;;;;5027272;28;20037;-85
2022/08/09 05:46:32;;;;;;;6.68;3.70;;;;;;;;;;5035697;28;20049;-84
2022/08/09 05:49:18;;;;;;;4.63;3.97;;;;;;;;;;5034807;28;20046;-84
2022/08/09 05:52:03;;;;;;;5.75;4.25;;;;;;;;;;5013550;28;20483;-84
2022/08/09 05:54:49;;;;;;;7.10;3.90;;;;;;;;;;5020039;28;20045;-84
2022/08/09 05:57:35;;;;;;;4.65;3.78;;;;;;;;;;5027025;28;20045;-84
2022/08/09 06:00:21;;;;;;;4.22;3.22;;;;;;;;;;5035423;28;20042;-84
2022/08/09 06:03:07;;;;;;;4.55;3.75;;;;;;;;;;5034790;28;20053;-85
2022/08/09 06:05:52;;;;;;;4.03;3.28;;;;;;;;;;5025791;28;20053;-81
2022/08/09 06:08:38;;;;;;;5.03;3.97;;;;;;;;;;5034203;28;20045;-83
2022/08/09 06:11:23;;;;;;;4.88;3.95;;;;;;;;;;5012742;28;20049;-83
2022/08/09 06:14:08;;;;;;;4.28;3.20;;;;;;;;;;5034593;28;20045;-81
2022/08/09 06:16:54;;;;;;;6.50;3.85;;;;;;;;;;5034571;28;20471;-80
2022/08/09 06:19:39;;;;;;;13.20;4.28;;;;;;;;;;5037749;28;20037;-82
2022/08/09 06:22:25;;;;;;;5.43;3.90;;;;;;;;;;5029746;28;20058;-82
2022/08/09 06:25:10;;;;;;;15.70;3.75;;;;;;;;;;5027225;28;20045;-82
2022/08/09 06:27:56;;;;;;;4.30;3.90;;;;;;;;;;5033345;28;20037;-83
2022/08/09 06:30:42;;;;;;;3.90;2.85;;;;;;;;;;5018868;28;20045;-82
2022/08/09 06:33:27;;;;;;;11.45;4.07;;;;;;;;;;5033587;28;20046;-85
2022/08/09 06:36:13;;;;;;;5.97;2.83;;;;;;;;;;5039643;28;20033;-82
2022/08/09 06:38:58;;;;;;;5.55;3.25;;;;;;;;;;5040426;28;20045;-82
2022/08/09 06:41:44;;;;;;;5.43;3.45;;;;;;;;;;5036820;28;20041;-81
2022/08/09 06:44:29;;;;;;;7.15;3.60;;;;;;;;;;5033791;28;20046;-82
2022/08/09 06:47:15;;;;;;;4.57;3.80;;;;;;;;;;5034002;28;20483;-83
2022/08/09 06:50:00;;;;;;;5.32;3.90;;;;;;;;;;5033506;28;20483;-82
2022/08/09 06:52:46;;;;;;;4.68;3.53;;;;;;;;;;5033880;28;20057;-85
2022/08/09 06:55:32;;;;;;;5.10;3.65;;;;;;;;;;5034442;28;20049;-82
2022/08/09 06:58:19;;;;;;;4.72;3.83;;;;;;;;;;5032465;28;20406;-84
2022/08/09 07:01:04;;;;;;;4.25;3.85;;;;;;;;;;5033916;28;20053;-85
2022/08/09 07:03:50;;;;;;;4.63;3.95;;;;;;;;;;5033920;28;20041;-84
2022/08/09 07:06:35;;;;;;;4.85;3.83;;;;;;;;;;5033472;28;20041;-83
2022/08/09 07:09:21;;;;;;;5.00;4.10;;;;;;;;;;5034434;28;20049;-82
2022/08/09 07:12:07;;;;;;;8.60;4.35;;;;;;;;;;5033841;28;20046;-85
2022/08/09 07:14:52;;;;;;;5.18;3.75;;;;;;;;;;5033970;28;20486;-83
2022/08/09 07:17:37;;;;;;;4.07;3.65;;;;;;;;;;5033758;28;20108;-81
2022/08/09 07:20:27;;;;;;;6.45;4.00;;;;;;;;;;5033326;28;20042;-81
2022/08/09 07:23:13;;;;;;;6.05;4.15;;;;;;;;;;5033456;28;20075;-80
2022/08/09 07:25:58;;;;;;;4.57;4.07;;;;;;;;;;5033328;28;20041;-81
2022/08/09 07:28:44;;;;;;;50.80;34.83;;;;;;;;;;5033630;28;20041;-80
2022/08/09 07:31:29;;;;;;;5.28;4.60;;;;;;;;;;5040228;28;20045;-76
2022/08/09 07:34:15;;;;;;;6.40;4.50;;;;;;;;;;5033164;28;20041;-79
2022/08/09 07:37:01;;;;;;;7.03;5.97;;;;;;;;;;5033670;28;20479;-78
2022/08/09 07:39:46;;;;;;;7.75;5.25;;;;;;;;;;5032153;28;20053;-77
2022/08/09 07:42:32;;;;;;;4.97;4.15;;;;;;;;;;5033170;28;20041;-78
2022/08/09 07:45:24;;;;;;;5.25;4.53;;;;;;;;;;5040314;28;20386;-76
2022/08/09 07:48:09;;;;;;;5.50;4.57;;;;;;;;;;5032788;28;20046;-78
2022/08/09 07:50:55;;;;;;;4.35;3.95;;;;;;;;;;5033555;28;20037;-76
2022/08/09 07:53:40;;;;;;;4.68;4.28;;;;;;;;;;5033704;28;20042;-79
2022/08/09 07:56:26;;;;;;;5.10;4.15;;;;;;;;;;5032792;28;20045;-77
2022/08/09 07:59:11;;;;;;;6.78;4.82;;;;;;;;;;5033400;28;20049;-81
2022/08/09 08:01:57;;;;;;;4.97;4.47;;;;;;;;;;5032886;28;20046;-79
2022/08/09 08:04:42;;;;;;;5.05;4.55;;;;;;;;;;5040088;28;20037;-79
2022/08/09 08:07:28;;;;;;;5.95;5.32;;;;;;;;;;5033909;28;20038;-77
2022/08/09 08:10:14;;;;;;;5.45;4.47;;;;;;;;;;5032866;28;20041;-79
2022/08/09 08:12:59;;;;;;;5.63;4.93;;;;;;;;;;5035759;28;20049;-78
2022/08/09 08:15:45;;;;;;;6.35;5.22;;;;;;;;;;5036977;28;20041;-78
2022/08/09 08:18:30;;;;;;;5.93;5.20;;;;;;;;;;5044362;28;20053;-78
2022/08/09 08:21:16;;;;;;;7.82;5.15;;;;;;;;;;5037080;28;20049;-76
2022/08/09 08:24:02;;;;;;;5.75;5.13;;;;;;;;;;5036847;28;20053;-77
2022/08/09 08:26:48;;;;;;;7.18;5.40;;;;;;;;;;5036795;28;20053;-81
2022/08/09 08:29:34;;;;;;;6.78;5.50;;;;;;;;;;5036687;28;20045;-79
2022/08/09 08:32:21;;;;;;;7.15;5.47;;;;;;;;;;5042948;28;20045;-81
2022/08/09 08:35:06;;;;;;;6.25;5.55;;;;;;;;;;5036649;28;20049;-77
2022/08/09 08:37:52;;;;;;;7.07;5.10;;;;;;;;;;5036419;28;20479;-78
2022/08/09 08:40:37;;;;;;;7.25;5.43;;;;;;;;;;5036913;28;20053;-78
2022/08/09 08:43:24;;;;;;;7.15;6.38;;;;;;;;;;5036845;28;20042;-79
2022/08/09 08:46:13;;;;;;;12.00;6.95;;;;;;;;;;5036650;28;20049;-84
2022/08/09 08:48:59;;;;;;;10.52;6.40;;;;;;;;;;5037102;28;20414;-79
2022/08/09 08:51:46;;;;;;;7.70;6.18;;;;;;;;;;5036025;28;20053;-77
2022/08/09 08:54:32;;;;;;;8.65;6.47;;;;;;;;;;5036306;28;20479;-75
2022/08/09 08:57:19;;;;;;;6.78;6.07;;;;;;;;;;5036242;28;20049;-83
2022/08/09 09:00:08;;;;;;;9.65;6.95;;;;;;;;;;5035900;28;20363;-79
2022/08/09 09:02:58;;;;;;;9.45;7.18;;;;;;;;;;5036423;28;20050;-80
2022/08/09 09:05:44;;;;;;;7.28;6.57;;;;;;;;;;5035861;28;20418;-81
2022/08/09 09:08:35;;;;;;;9.20;7.30;;;;;;;;;;5036136;28;20046;-76
2022/08/09 09:11:20;;;;;;;10.40;6.60;;;;;;;;;;5035935;28;20478;-79
2022/08/09 09:14:18;;;;;;;8.57;7.18;;;;;;;;;;5035769;28;20399;-78
2022/08/09 09:17:03;;;;;;;8.05;6.95;;;;;;;;;;5035834;28;20041;-78
2022/08/09 09:19:51;;;;;;;10.32;7.90;;;;;;;;;;5035665;28;20041;-78
2022/08/09 09:23:08;;;;;;;11.57;8.10;;;;;;;;;;5035234;28;20050;-78
2022/08/09 09:25:54;;;;;;;11.27;8.55;;;;;;;;;;4995600;28;20058;-78
2022/08/09 09:28:47;;;;;;;8.57;6.03;;;;;;;;;;5041772;28;20482;-77
2022/08/09 09:31:32;;;;;;;10.30;7.72;;;;;;;;;;5042116;28;20045;-78
2022/08/09 09:34:18;;;;;;;11.13;7.85;;;;;;;;;;5035144;28;20471;-78
2022/08/09 09:37:05;;;;;;;10.30;7.97;;;;;;;;;;5041985;28;20041;-78
2022/08/09 09:39:53;;;;;;;8.73;7.82;;;;;;;;;;5035443;28;20050;-78
2022/08/09 09:42:39;;;;;;;8.80;7.32;;;;;;;;;;5034859;28;20046;-78
2022/08/09 09:45:24;;;;;;;9.82;8.45;;;;;;;;;;5035777;28;20045;-78
2022/08/09 09:48:10;;;;;;;9.38;7.65;;;;;;;;;;5041906;28;20487;-78
2022/08/09 09:50:55;;;;;;;9.05;7.13;;;;;;;;;;5019944;28;20053;-78
2022/08/09 09:53:41;;;;;;;9.63;7.85;;;;;;;;;;5041777;28;20049;-77
2022/08/09 09:56:31;;;;;;;8.55;7.20;;;;;;;;;;5019844;28;20041;-77
2022/08/09 09:59:32;;;;;;;13.65;8.75;;;;;;;;;;5035116;28;20042;-78
2022/08/09 10:02:17;;;;;;;9.50;6.22;;;;;;;;;;5034856;28;20045;-77
2022/08/09 10:05:08;;;;;;;10.77;8.82;;;;;;;;;;5034871;28;20045;-77
2022/08/09 10:08:04;;;;;;;11.43;8.68;;;;;;;;;;5041582;28;20049;-77
2022/08/09 10:10:50;;;;;;;11.38;9.13;;;;;;;;;;5040651;28;20491;-78
2022/08/09 10:13:38;;;;;;;13.75;9.13;;;;;;;;;;5041729;28;20041;-77
2022/08/09 10:16:32;;;;;;;12.85;8.95;;;;;;;;;;5034801;28;20045;-79
2022/08/09 10:19:18;;;;;;;9.60;8.48;;;;;;;;;;5041311;28;20053;-80
2022/08/09 10:22:03;;;;;;;10.38;7.97;;;;;;;;;;5019508;28;20049;-77
2022/08/09 10:24:48;;;;;;;8.65;7.45;;;;;;;;;;5041009;28;20049;-77
2022/08/09 10:27:34;;;;;;;9.95;8.30;;;;;;;;;;5034640;28;20045;-76
2022/08/09 10:30:20;;;;;;;10.68;8.23;;;;;;;;;;5034490;28;20510;-78
2022/08/09 10:33:07;;;;;;;10.38;7.78;;;;;;;;;;5034045;28;20037;-77
2022/08/09 10:35:53;;;;;;;10.43;7.82;;;;;;;;;;5034092;28;20038;-79
2022/08/09 10:38:44;;;;;;;9.25;7.78;;;;;;;;;;5034370;28;20049;-79
2022/08/09 10:41:30;;;;;;;9.63;8.63;;;;;;;;;;5034358;28;20548;-78
2022/08/09 10:44:25;;;;;;;11.45;9.00;;;;;;;;;;5034659;28;20041;-76
2022/08/09 10:47:41;;;;;;;6.88;6.07;;;;;;;;;;5033751;28;20037;-77
2022/08/09 10:53:56;;;;;;;10.23;7.35;;;;;;;;;;5033668;28;20049;-79
2022/08/09 10:56:41;;;;;;;9.57;6.70;;;;;;;;;;5034082;28;20045;-77
2022/08/09 10:59:29;;;;;;;6.72;6.03;;;;;;;;;;5033880;28;20053;-77
2022/08/09 11:02:34;;;;;;;7.30;6.22;;;;;;;;;;5033847;28;20045;-78
2022/08/09 11:05:21;;;;;;;8.18;6.20;;;;;;;;;;5034134;28;20046;-78
2022/08/09 11:08:44;;;;;;;8.10;6.50;;;;;;;;;;5033355;28;20049;-79
2022/08/09 11:11:53;;;;;;;6.72;5.85;;;;;;;;;;5033959;28;20053;-77
2022/08/09 11:14:47;;;;;;;8.35;6.50;;;;;;;;;;5033061;28;20057;-78
2022/08/09 11:17:33;;;;;;;8.57;6.37;;;;;;;;;;5025279;28;20038;-79
2022/08/09 11:20:37;;;;;;;7.85;6.00;;;;;;;;;;5033960;28;20061;-76
2022/08/09 11:23:23;;;;;;;7.60;6.63;;;;;;;;;;5033118;28;20041;-78
2022/08/09 11:26:37;;;;;;;7.82;6.95;;;;;;;;;;5033754;28;20045;-77
2022/08/09 11:29:54;;;;;;;9.13;7.18;;;;;;;;;;5039601;28;20053;-78
2022/08/09 11:32:46;;;;;;;8.60;6.47;;;;;;;;;;5033767;28;20041;-77
2022/08/09 11:35:46;;;;;;;7.63;6.82;;;;;;;;;;5033100;28;20049;-78
2022/08/09 11:38:33;;;;;;;8.70;6.53;;;;;;;;;;5018528;28;20052;-78
2022/08/09 11:41:20;;;;;;;7.38;6.10;;;;;;;;;;5033747;28;20045;-78
2022/08/09 11:44:06;;;;;;;7.07;5.82;;;;;;;;;;5032750;28;20053;-78
2022/08/09 11:46:55;;;;;;;9.80;6.80;;;;;;;;;;5034323;28;20041;-76
2022/08/09 11:50:01;;;;;;;7.03;6.32;;;;;;;;;;5037015;28;20058;-78
2022/08/09 11:52:58;;;;;;;6.38;5.30;;;;;;;;;;5037184;28;20053;-78
2022/08/09 11:55:44;;;;;;;6.15;4.85;;;;;;;;;;5037795;28;20045;-76
2022/08/09 11:58:30;;;;;;;7.30;5.38;;;;;;;;;;5028152;28;20050;-77
2022/08/09 12:01:18;;;;;;;8.32;6.03;;;;;;;;;;5044589;28;20045;-79
2022/08/09 12:04:13;;;;;;;6.05;5.22;;;;;;;;;;5036806;28;20041;-79
2022/08/09 12:06:58;;;;;;;7.10;5.70;;;;;;;;;;5037188;28;20049;-79
2022/08/09 12:09:44;;;;;;;7.93;5.20;;;;;;;;;;5037103;28;20049;-77
2022/08/09 12:12:48;;;;;;;7.57;6.70;;;;;;;;;;5036511;28;20049;-79
2022/08/09 12:15:34;;;;;;;8.15;6.20;;;;;;;;;;5037088;28;20041;-78
2022/08/09 12:18:19;;;;;;;8.10;6.63;;;;;;;;;;5036727;28;20053;-79
2022/08/09 12:21:07;;;;;;;6.32;5.68;;;;;;;;;;5037213;28;20060;-79
2022/08/09 12:23:53;;;;;;;10.20;5.13;;;;;;;;;;5037012;28;20042;-79
2022/08/09 12:26:55;;;;;;;6.13;5.50;;;;;;;;;;5036179;28;20050;-81
2022/08/09 12:29:54;;;;;;;6.72;5.68;;;;;;;;;;5036603;28;20037;-79
2022/08/09 12:32:40;;;;;;;5.68;4.50;;;;;;;;;;5036027;28;20041;-79
2022/08/09 12:35:26;;;;;;;9.13;5.90;;;;;;;;;;5037058;28;20375;-79
2022/08/09 12:38:24;;;;;;;7.10;5.80;;;;;;;;;;5036614;28;20467;-78
2022/08/09 12:41:09;;;;;;;9.98;5.85;;;;;;;;;;5035937;28;20053;-77
2022/08/09 12:43:56;;;;;;;7.50;5.85;;;;;;;;;;5036165;28;20053;-76
2022/08/09 12:46:48;;;;;;;7.88;6.32;;;;;;;;;;5036037;28;20045;-78
2022/08/09 12:49:34;;;;;;;7.68;6.38;;;;;;;;;;5036276;28;20402;-77
2022/08/09 12:52:19;;;;;;;6.25;5.50;;;;;;;;;;5036423;28;20037;-79
2022/08/09 12:55:06;;;;;;;5.93;5.28;;;;;;;;;;5035623;28;20049;-79
2022/08/09 12:57:52;;;;;;;8.85;6.85;;;;;;;;;;5036240;28;20491;-79
2022/08/09 13:00:46;;;;;;;7.40;6.05;;;;;;;;;;5036106;28;20049;-81
2022/08/09 13:03:34;;;;;;;6.88;5.35;;;;;;;;;;5036121;28;20053;-77
2022/08/09 13:06:46;;;;;;;8.05;5.68;;;;;;;;;;5036471;28;20041;-78
2022/08/09 13:09:32;;;;;;;8.23;5.70;;;;;;;;;;5026934;28;20053;-79
2022/08/09 13:12:17;;;;;;;9.02;6.13;;;;;;;;;;5035858;28;20037;-77
2022/08/09 13:15:05;;;;;;;7.30;5.90;;;;;;;;;;5035700;28;20042;-79
2022/08/09 13:17:51;;;;;;;8.93;5.57;;;;;;;;;;5035197;28;20041;-79
2022/08/09 13:20:36;;;;;;;8.40;6.18;;;;;;;;;;5035762;28;20053;-78
2022/08/09 13:23:39;;;;;;;8.23;5.85;;;;;;;;;;5035532;28;20045;-77
2022/08/09 13:26:41;;;;;;;8.40;6.13;;;;;;;;;;5036003;28;20045;-77
2022/08/09 13:29:27;;;;;;;9.25;6.50;;;;;;;;;;5035118;28;20391;-78
2022/08/09 13:32:12;;;;;;;11.32;6.32;;;;;;;;;;5035634;28;20045;-78
2022/08/09 13:34:57;;;;;;;8.20;6.25;;;;;;;;;;5035615;28;20049;-77
2022/08/09 13:37:44;;;;;;;8.40;6.50;;;;;;;;;;5034866;28;20045;-80
2022/08/09 13:40:29;;;;;;;7.82;5.80;;;;;;;;;;5035786;28;20053;-79
2022/08/09 13:43:22;;;;;;;5.97;4.95;;;;;;;;;;5041549;28;20340;-81
2022/08/09 13:46:07;;;;;;;7.90;5.78;;;;;;;;;;5034738;28;20057;-78
2022/08/09 13:48:52;;;;;;;6.90;5.55;;;;;;;;;;5036640;28;20049;-76
2022/08/09 13:51:37;;;;;;;7.32;5.35;;;;;;;;;;5034320;28;20037;-78
2022/08/09 13:54:23;;;;;;;8.68;7.07;;;;;;;;;;5041939;28;20049;-78
2022/08/09 13:57:09;;;;;;;8.18;6.43;;;;;;;;;;5035205;28;20046;-78
2022/08/09 13:59:54;;;;;;;7.32;5.75;;;;;;;;;;5035110;28;20046;-78
2022/08/09 14:02:40;;;;;;;5.82;5.30;;;;;;;;;;5041747;28;20212;-78
2022/08/09 14:05:26;;;;;;;8.43;6.55;;;;;;;;;;5034523;28;20053;-78
2022/08/09 14:08:12;;;;;;;9.85;6.95;;;;;;;;;;5035085;28;20475;-79
2022/08/09 14:10:57;;;;;;;8.68;6.40;;;;;;;;;;5033467;28;20411;-77
2022/08/09 14:13:43;;;;;;;5.85;5.22;;;;;;;;;;5041000;28;20046;-78
2022/08/09 14:16:28;;;;;;;10.27;6.57;;;;;;;;;;5034552;28;20045;-77
2022/08/09 14:19:14;;;;;;;6.63;5.40;;;;;;;;;;5034360;28;20042;-77
2022/08/09 14:22:00;;;;;;;6.43;5.57;;;;;;;;;;5033862;28;20053;-78
2022/08/09 14:24:45;;;;;;;8.93;6.35;;;;;;;;;;5025684;28;20057;-78
2022/08/09 14:27:30;;;;;;;7.05;6.35;;;;;;;;;;5034091;28;20045;-77
2022/08/09 14:30:16;;;;;;;6.88;4.50;;;;;;;;;;5034102;28;20399;-76
2022/08/09 14:33:01;;;;;;;7.60;4.65;;;;;;;;;;5040555;28;20038;-77
2022/08/09 14:35:46;;;;;;;4.88;4.13;;;;;;;;;;5034479;28;20037;-79
2022/08/09 14:38:32;;;;;;;5.40;4.32;;;;;;;;;;5040919;28;20049;-80
2022/08/09 14:41:18;;;;;;;6.10;4.28;;;;;;;;;;5034061;28;20045;-77
2022/08/09 14:44:04;;;;;;;5.63;4.32;;;;;;;;;;5041074;28;20053;-80
2022/08/09 14:46:49;;;;;;;6.13;3.90;;;;;;;;;;5034685;28;20049;-82
2022/08/09 14:49:34;;;;;;;4.78;3.75;;;;;;;;;;5039655;28;20045;-80
2022/08/09 14:52:20;;;;;;;4.50;4.10;;;;;;;;;;5040180;28;20061;-79
2022/08/09 14:55:06;;;;;;;5.90;4.35;;;;;;;;;;5040207;28;20455;-79
2022/08/09 14:57:51;;;;;;;4.75;4.20;;;;;;;;;;5033426;28;20045;-79
2022/08/09 15:00:38;;;;;;;7.85;4.50;;;;;;;;;;5033983;28;20045;-80
2022/08/09 15:03:24;;;;;;;6.22;4.10;;;;;;;;;;5039872;28;20045;-79
2022/08/09 15:06:13;;;;;;;4.85;3.95;;;;;;;;;;5033865;28;20053;-77
2022/08/09 15:08:59;;;;;;;5.93;4.50;;;;;;;;;;5040579;28;20045;-80
2022/08/09 15:11:44;;;;;;;5.32;4.30;;;;;;;;;;5033375;28;20394;-79
2022/08/09 15:14:30;;;;;;;4.60;3.83;;;;;;;;;;5040590;28;20041;-80
2022/08/09 15:17:15;;;;;;;4.88;3.45;;;;;;;;;;5033016;28;20494;-80
2022/08/09 15:20:01;;;;;;;5.45;3.97;;;;;;;;;;5033974;28;20049;-81
2022/08/09 15:22:46;;;;;;;5.15;3.85;;;;;;;;;;5035840;28;20049;-78
2022/08/09 15:25:33;;;;;;;7.03;4.15;;;;;;;;;;5033690;28;20049;-79
2022/08/09 15:28:19;;;;;;;5.93;3.85;;;;;;;;;;5033571;28;20041;-76
2022/08/09 15:31:04;;;;;;;4.20;3.72;;;;;;;;;;5032722;28;20045;-80
2022/08/09 15:33:50;;;;;;;5.10;4.03;;;;;;;;;;5033603;28;20050;-79
2022/08/09 15:36:35;;;;;;;4.78;4.20;;;;;;;;;;5039837;28;20045;-79
2022/08/09 15:39:20;;;;;;;6.25;4.07;;;;;;;;;;5033810;28;20049;-80
2022/08/09 15:42:09;;;;;;;4.88;3.67;;;;;;;;;;5040015;28;20041;-78
2022/08/09 15:44:57;;;;;;;7.40;4.18;;;;;;;;;;5039406;28;20045;-78
2022/08/09 15:47:43;;;;;;;5.07;4.53;;;;;;;;;;5039551;28;20140;-78
2022/08/09 15:50:28;;;;;;;6.25;4.85;;;;;;;;;;5033115;28;20041;-79
2022/08/09 15:53:14;;;;;;;6.30;5.32;;;;;;;;;;5038983;28;20037;-78
2022/08/09 15:55:59;;;;;;;6.95;4.70;;;;;;;;;;5039683;28;20058;-78
2022/08/09 15:58:45;;;;;;;5.60;4.68;;;;;;;;;;5033145;28;20049;-77
2022/08/09 16:01:30;;;;;;;6.45;4.90;;;;;;;;;;5032916;28;20045;-77
2022/08/09 16:04:16;;;;;;;5.82;4.32;;;;;;;;;;5039120;28;20344;-80
2022/08/09 16:07:02;;;;;;;11.55;4.90;;;;;;;;;;5033364;28;20042;-80
2022/08/09 16:09:47;;;;;;;7.32;4.40;;;;;;;;;;5032858;28;20042;-78
2022/08/09 16:12:33;;;;;;;5.22;4.30;;;;;;;;;;5033291;28;20041;-77
2022/08/09 16:15:19;;;;;;;5.18;4.28;;;;;;;;;;5033023;28;20045;-78
2022/08/09 16:18:04;;;;;;;12.65;4.07;;;;;;;;;;5032694;28;20050;-77
2022/08/09 16:20:51;;;;;;;5.15;3.92;;;;;;;;;;5033698;28;20053;-78
2022/08/09 16:23:36;;;;;;;5.65;4.70;;;;;;;;;;5033260;28;20041;-77
2022/08/09 16:26:23;;;;;;;5.72;3.75;;;;;;;;;;5032735;28;20049;-78
2022/08/09 16:29:10;;;;;;;6.53;3.90;;;;;;;;;;5032560;28;20049;-75
2022/08/09 16:31:58;;;;;;;5.57;4.30;;;;;;;;;;5032612;28;20050;-77
2022/08/09 16:34:44;;;;;;;6.47;3.97;;;;;;;;;;5036818;28;20042;-79
2022/08/09 16:37:29;;;;;;;6.07;4.38;;;;;;;;;;5037028;28;20402;-76
2022/08/09 16:40:18;;;;;;;4.65;3.75;;;;;;;;;;5035423;28;20047;-78
2022/08/09 16:43:03;;;;;;;7.45;4.25;;;;;;;;;;5036512;28;20041;-79
2022/08/09 16:45:48;;;;;;;5.38;4.03;;;;;;;;;;5027065;28;20041;-77
2022/08/09 16:48:33;;;;;;;8.32;4.00;;;;;;;;;;5036162;28;20057;-79